Mobaye Mbanga Airport


Codes: FEFE/
Name: Mobaye Mbanga Airport
City: Mobaye Mbanga
Country: Central African Republic
Elevation: 1332 ft.
Wikipedia:

Photos at Mobaye Mbanga Airport


   Photos courtesy of SpottingLog. You can add your own sightings and photos by signing up for a free trial today.



No photos found.

Weather at Mobaye Mbanga Airport


Time (UTC)DescriptionTempratureWindCloud coverageVisibilityPressureHumidity
21-Feb-2024 03:00Overcast Clouds25°C2 mph, E100%10000m1006hPa40%
21-Feb-2024 06:00Overcast Clouds26°C2 mph, NE99%10000m1008hPa39%
21-Feb-2024 09:00Overcast Clouds38°C2 mph, NE94%10000m1008hPa17%
21-Feb-2024 12:00Broken Clouds42°C2 mph, N79%10000m1003hPa12%
21-Feb-2024 15:00Broken Clouds41°C2 mph, E67%10000m1001hPa12%
21-Feb-2024 18:00Broken Clouds31°C2 mph, E78%10000m1003hPa24%
21-Feb-2024 21:00Overcast Clouds28°C2 mph, S100%10000m1004hPa27%
22-Feb-2024 00:00Overcast Clouds25°C2 mph, E99%10000m1005hPa36%
22-Feb-2024 03:00Overcast Clouds24°C2 mph, S100%10000m1006hPa48%
22-Feb-2024 06:00Overcast Clouds26°C0 mph, S100%10000m1008hPa53%
22-Feb-2024 09:00Overcast Clouds36°C2 mph, SE100%10000m1007hPa33%
22-Feb-2024 12:00Overcast Clouds41°C4 mph, E100%10000m1003hPa15%
22-Feb-2024 15:00Overcast Clouds40°C4 mph, E100%10000m1001hPa13%
22-Feb-2024 18:00Overcast Clouds30°C2 mph, SE96%10000m1003hPa23%
22-Feb-2024 21:00Broken Clouds30°C2 mph, SE76%10000m1005hPa25%
23-Feb-2024 00:00Overcast Clouds27°C2 mph, E88%10000m1004hPa34%
23-Feb-2024 03:00Overcast Clouds27°C2 mph, SE99%10000m1006hPa36%
23-Feb-2024 06:00Overcast Clouds28°C4 mph, SW99%10000m1008hPa37%
23-Feb-2024 09:00Overcast Clouds37°C4 mph, SW100%10000m1008hPa28%
23-Feb-2024 12:00Overcast Clouds40°C2 mph, SE100%10000m1004hPa20%
23-Feb-2024 15:00Overcast Clouds34°C4 mph, SE100%10000m1003hPa33%
23-Feb-2024 18:00Overcast Clouds29°C2 mph, S100%10000m1005hPa49%
23-Feb-2024 21:00Broken Clouds27°C4 mph, SW78%10000m1006hPa57%
24-Feb-2024 00:00Broken Clouds25°C2 mph, SW66%10000m1006hPa67%
24-Feb-2024 03:00Broken Clouds24°C4 mph, SW71%10000m1007hPa69%
24-Feb-2024 06:00Broken Clouds26°C2 mph, SW73%10000m1010hPa63%
24-Feb-2024 09:00Overcast Clouds31°C7 mph, SW100%10000m1011hPa49%
24-Feb-2024 12:00Overcast Clouds35°C7 mph, SW100%10000m1007hPa39%
24-Feb-2024 15:00Overcast Clouds35°C4 mph, W100%10000m1004hPa35%
24-Feb-2024 18:00Light Rain29°C4 mph, SW100%10000m1006hPa55%
24-Feb-2024 21:00Broken Clouds25°C4 mph, S76%10000m1009hPa78%
25-Feb-2024 00:00Overcast Clouds24°C4 mph, S88%10000m1009hPa82%
25-Feb-2024 03:00Overcast Clouds23°C4 mph, S100%10000m1009hPa88%
25-Feb-2024 06:00Overcast Clouds25°C7 mph, SW98%10000m1011hPa82%
25-Feb-2024 09:00Overcast Clouds29°C7 mph, SW97%10000m1013hPa59%
25-Feb-2024 12:00Overcast Clouds35°C7 mph, SW98%10000m1009hPa39%
25-Feb-2024 15:00Light Rain28°C9 mph, SW100%10000m1008hPa65%
25-Feb-2024 18:00Light Rain25°C4 mph, NW100%10000m1010hPa74%
25-Feb-2024 21:00Moderate Rain22°C2 mph, SE100%10000m1013hPa90%
26-Feb-2024 00:00Overcast Clouds23°C9 mph, S100%10000m1010hPa88%